Time;durP1;ratioP1;P1;durP2;ratioP2;P2;SDS_P1;SDS_P2;PMS_P1;PMS_P2;Temp;Humidity;BMP_temperature;BMP_pressure;BME280_temperature;BME280_humidity;BME280_pressure;Samples;Min_cycle;Max_cycle;Signal;HPM_P1;HPM_P2
2022/10/14 00:01:32;;;;;;;35.88;17.98;;;;;;;;;;5012456;28;20152;-62
2022/10/14 00:03:59;;;;;;;32.58;16.90;;;;;;;;;;4999919;28;20121;-61
2022/10/14 00:06:30;;;;;;;30.05;16.60;;;;;;;;;;5010205;28;20037;-62
2022/10/14 00:08:59;;;;;;;29.55;16.85;;;;;;;;;;5001004;28;20034;-62
2022/10/14 00:11:27;;;;;;;33.70;16.88;;;;;;;;;;4972985;28;20041;-62
2022/10/14 00:13:55;;;;;;;29.90;17.15;;;;;;;;;;4974644;28;20046;-62
2022/10/14 00:16:23;;;;;;;28.98;17.25;;;;;;;;;;4972891;28;20046;-62
2022/10/14 00:18:49;;;;;;;32.33;17.63;;;;;;;;;;4982655;28;20035;-61
2022/10/14 00:21:15;;;;;;;27.67;16.98;;;;;;;;;;4976585;28;20061;-62
2022/10/14 00:23:40;;;;;;;32.90;16.70;;;;;;;;;;5006272;28;20041;-62
2022/10/14 00:26:05;;;;;;;29.10;16.83;;;;;;;;;;4981311;28;20423;-62
2022/10/14 00:28:31;;;;;;;31.27;17.02;;;;;;;;;;4997403;28;20031;-62
2022/10/14 00:31:00;;;;;;;28.25;16.35;;;;;;;;;;4976410;28;20034;-62
2022/10/14 00:33:27;;;;;;;28.13;16.92;;;;;;;;;;4992227;28;20061;-62
2022/10/14 00:35:54;;;;;;;33.25;17.73;;;;;;;;;;4977112;28;20121;-62
2022/10/14 00:38:19;;;;;;;29.70;17.38;;;;;;;;;;4987096;28;20041;-62
2022/10/14 00:40:45;;;;;;;31.65;17.10;;;;;;;;;;4995040;28;20104;-62
2022/10/14 00:43:13;;;;;;;30.65;16.77;;;;;;;;;;4974596;28;20031;-62
2022/10/14 00:45:38;;;;;;;29.00;16.42;;;;;;;;;;4990187;28;20483;-62
2022/10/14 00:48:04;;;;;;;27.67;17.35;;;;;;;;;;4987692;28;20040;-62
2022/10/14 00:50:29;;;;;;;32.03;16.33;;;;;;;;;;4992402;28;20031;-62
2022/10/14 00:52:55;;;;;;;28.77;16.20;;;;;;;;;;4982529;28;20042;-62
2022/10/14 00:55:20;;;;;;;28.95;16.80;;;;;;;;;;4978263;28;20034;-62
2022/10/14 00:57:46;;;;;;;28.17;16.67;;;;;;;;;;5000162;28;20045;-63
2022/10/14 01:00:15;;;;;;;31.63;16.98;;;;;;;;;;4988126;28;20429;-62
2022/10/14 01:02:41;;;;;;;29.38;16.63;;;;;;;;;;5011802;28;20375;-62
2022/10/14 01:05:08;;;;;;;31.02;17.48;;;;;;;;;;4983622;28;20062;-62
2022/10/14 01:07:43;;;;;;;32.58;17.85;;;;;;;;;;4994635;28;20034;-62
2022/10/14 01:10:18;;;;;;;31.88;18.08;;;;;;;;;;4983430;28;20046;-62
2022/10/14 01:13:09;;;;;;;32.80;17.70;;;;;;;;;;4975228;28;20042;-62
2022/10/14 01:15:37;;;;;;;34.33;19.57;;;;;;;;;;4998639;28;20506;-62
2022/10/14 01:18:16;;;;;;;34.05;19.20;;;;;;;;;;4984282;28;20060;-61
2022/10/14 01:21:13;;;;;;;35.95;18.02;;;;;;;;;;4973349;28;20130;-61
2022/10/14 01:24:21;;;;;;;33.47;18.73;;;;;;;;;;4987148;28;20116;-61
2022/10/14 01:27:03;;;;;;;30.02;17.70;;;;;;;;;;4985614;28;20048;-61
2022/10/14 01:29:54;;;;;;;36.00;18.80;;;;;;;;;;4971448;28;20047;-61
2022/10/14 01:32:58;;;;;;;31.08;17.67;;;;;;;;;;5002329;28;20466;-61
2022/10/14 01:35:26;;;;;;;33.17;18.48;;;;;;;;;;4969631;28;20042;-61
2022/10/14 01:37:58;;;;;;;31.77;17.77;;;;;;;;;;5011630;28;20069;-61
2022/10/14 01:40:51;;;;;;;33.53;19.08;;;;;;;;;;4975144;28;20045;-62
2022/10/14 01:43:19;;;;;;;38.83;18.48;;;;;;;;;;4964124;28;20055;-62
2022/10/14 01:45:47;;;;;;;32.80;18.73;;;;;;;;;;4977614;28;20429;-61
2022/10/14 01:48:17;;;;;;;34.65;18.15;;;;;;;;;;4973389;28;20392;-61
2022/10/14 01:50:45;;;;;;;37.55;19.15;;;;;;;;;;4971498;28;20558;-60
2022/10/14 01:53:19;;;;;;;31.20;18.15;;;;;;;;;;4972114;28;20030;-60
2022/10/14 01:55:46;;;;;;;30.45;18.40;;;;;;;;;;4980822;28;20044;-60
2022/10/14 01:58:14;;;;;;;37.25;19.13;;;;;;;;;;4972009;28;20574;-60
2022/10/14 02:00:39;;;;;;;34.03;18.33;;;;;;;;;;4972033;28;20034;-62
2022/10/14 02:03:05;;;;;;;33.58;18.60;;;;;;;;;;4971574;28;20034;-60
2022/10/14 02:05:43;;;;;;;33.67;17.85;;;;;;;;;;5005164;28;20088;-60
2022/10/14 02:08:16;;;;;;;33.45;18.17;;;;;;;;;;4994302;28;20030;-61
2022/10/14 02:10:57;;;;;;;34.47;17.88;;;;;;;;;;5001278;28;20435;-61
2022/10/14 02:13:38;;;;;;;29.48;16.23;;;;;;;;;;4974934;28;20034;-61
2022/10/14 02:16:44;;;;;;;28.48;17.27;;;;;;;;;;4983412;28;20100;-62
2022/10/14 02:19:45;;;;;;;31.20;17.58;;;;;;;;;;4996475;28;20045;-60
2022/10/14 02:22:42;;;;;;;33.20;17.52;;;;;;;;;;4975473;28;20488;-60
2022/10/14 02:25:22;;;;;;;31.50;17.05;;;;;;;;;;4989327;28;20510;-60
2022/10/14 02:27:49;;;;;;;38.28;17.88;;;;;;;;;;4975397;28;20109;-61
2022/10/14 02:30:18;;;;;;;33.25;18.00;;;;;;;;;;4978013;28;20038;-60
2022/10/14 02:32:45;;;;;;;32.60;17.35;;;;;;;;;;4975646;28;20039;-60
2022/10/14 02:35:13;;;;;;;30.52;17.45;;;;;;;;;;4991710;28;20038;-60
2022/10/14 02:37:39;;;;;;;33.67;17.63;;;;;;;;;;4992732;28;20034;-60
2022/10/14 02:40:17;;;;;;;31.27;16.70;;;;;;;;;;4974897;28;20479;-60
2022/10/14 02:42:42;;;;;;;35.42;16.60;;;;;;;;;;4974191;28;20035;-61
2022/10/14 02:45:10;;;;;;;30.80;17.33;;;;;;;;;;4980199;28;20085;-61
2022/10/14 02:47:36;;;;;;;30.45;17.05;;;;;;;;;;4978875;28;20297;-61
2022/10/14 02:50:02;;;;;;;29.98;16.70;;;;;;;;;;4973959;28;20467;-61
2022/10/14 02:52:27;;;;;;;29.77;16.30;;;;;;;;;;4985414;28;20483;-61
2022/10/14 02:54:53;;;;;;;33.10;17.08;;;;;;;;;;4976628;28;20447;-61
2022/10/14 02:57:18;;;;;;;30.42;16.17;;;;;;;;;;4991357;28;20117;-61
2022/10/14 02:59:44;;;;;;;25.35;15.43;;;;;;;;;;4979133;28;20042;-61
2022/10/14 03:02:09;;;;;;;27.00;15.95;;;;;;;;;;4993423;28;20434;-61
2022/10/14 03:04:35;;;;;;;28.25;15.23;;;;;;;;;;4989619;28;20027;-61
2022/10/14 03:07:01;;;;;;;28.85;15.95;;;;;;;;;;4986743;28;20480;-61
2022/10/14 03:09:26;;;;;;;27.42;15.63;;;;;;;;;;4986045;28;20089;-61
2022/10/14 03:11:51;;;;;;;28.75;16.35;;;;;;;;;;4990064;28;20053;-60
2022/10/14 03:14:17;;;;;;;28.73;16.10;;;;;;;;;;4995105;28;20494;-60
2022/10/14 03:16:42;;;;;;;31.23;16.58;;;;;;;;;;5003064;28;20041;-60
2022/10/14 03:19:08;;;;;;;28.05;16.52;;;;;;;;;;4991722;28;20082;-61
2022/10/14 03:21:33;;;;;;;29.98;16.38;;;;;;;;;;4982469;28;20080;-62
2022/10/14 03:24:00;;;;;;;29.05;17.20;;;;;;;;;;4979914;28;20467;-62
2022/10/14 03:26:26;;;;;;;29.77;17.38;;;;;;;;;;5009958;28;20038;-61
2022/10/14 03:28:51;;;;;;;24.08;15.40;;;;;;;;;;5003331;28;20037;-61
2022/10/14 03:31:17;;;;;;;31.83;16.55;;;;;;;;;;5013677;28;20366;-61
2022/10/14 03:33:42;;;;;;;29.85;16.60;;;;;;;;;;5004755;28;20038;-67
2022/10/14 03:36:08;;;;;;;28.95;17.15;;;;;;;;;;4991842;28;20057;-67
2022/10/14 03:38:33;;;;;;;26.27;16.33;;;;;;;;;;4992786;28;20026;-65
2022/10/14 03:40:58;;;;;;;27.05;16.77;;;;;;;;;;4999603;28;20459;-66
2022/10/14 03:43:24;;;;;;;26.30;15.88;;;;;;;;;;4985467;28;20030;-65
2022/10/14 03:45:49;;;;;;;29.23;16.60;;;;;;;;;;4980132;28;20093;-65
2022/10/14 03:48:14;;;;;;;27.92;16.30;;;;;;;;;;4991329;28;20035;-68
2022/10/14 03:50:40;;;;;;;29.08;16.48;;;;;;;;;;4991535;28;20482;-65
2022/10/14 03:53:05;;;;;;;28.50;17.58;;;;;;;;;;4990589;28;20587;-66
2022/10/14 03:55:31;;;;;;;28.50;16.23;;;;;;;;;;4973419;28;20062;-69
2022/10/14 03:57:56;;;;;;;27.48;16.48;;;;;;;;;;4974229;28;20436;-65
2022/10/14 04:00:21;;;;;;;28.08;17.02;;;;;;;;;;4978719;28;20038;-64
2022/10/14 04:02:47;;;;;;;28.55;17.13;;;;;;;;;;4999737;28;20443;-65
2022/10/14 04:05:12;;;;;;;27.40;16.73;;;;;;;;;;4989087;28;20066;-65
2022/10/14 04:07:38;;;;;;;26.10;16.30;;;;;;;;;;4981048;28;20445;-65
2022/10/14 04:10:04;;;;;;;29.73;16.58;;;;;;;;;;4992658;28;20037;-66
2022/10/14 04:12:29;;;;;;;30.08;16.38;;;;;;;;;;4993004;28;20030;-66
2022/10/14 04:14:56;;;;;;;29.20;16.40;;;;;;;;;;4977851;28;20046;-66
2022/10/14 04:17:22;;;;;;;31.90;16.63;;;;;;;;;;4973378;28;20034;-65
2022/10/14 04:19:48;;;;;;;33.03;17.70;;;;;;;;;;4989344;28;20057;-66
2022/10/14 04:22:13;;;;;;;32.70;16.88;;;;;;;;;;4993857;28;20541;-66
2022/10/14 04:24:38;;;;;;;28.38;15.93;;;;;;;;;;4974638;28;20034;-63
2022/10/14 04:27:04;;;;;;;31.67;16.67;;;;;;;;;;4991776;28;20093;-66
2022/10/14 04:29:30;;;;;;;32.30;16.98;;;;;;;;;;4986299;28;20400;-64
2022/10/14 04:31:55;;;;;;;32.10;17.38;;;;;;;;;;4974384;28;20035;-64
2022/10/14 04:34:23;;;;;;;34.05;16.40;;;;;;;;;;4981068;28;20097;-64
2022/10/14 04:36:50;;;;;;;30.00;15.57;;;;;;;;;;4992265;28;20101;-65
2022/10/14 04:39:16;;;;;;;30.48;16.75;;;;;;;;;;4992853;28;20054;-64
2022/10/14 04:41:41;;;;;;;32.70;16.38;;;;;;;;;;4993020;28;20886;-65
2022/10/14 04:44:07;;;;;;;29.70;15.85;;;;;;;;;;4989361;28;20463;-66
2022/10/14 04:46:32;;;;;;;30.13;16.65;;;;;;;;;;4989645;28;20435;-65
2022/10/14 04:48:57;;;;;;;31.30;16.40;;;;;;;;;;4987147;28;20035;-64
2022/10/14 04:51:23;;;;;;;29.48;16.10;;;;;;;;;;4992080;28;20045;-64
2022/10/14 04:53:49;;;;;;;30.65;15.60;;;;;;;;;;4975893;28;20038;-64
2022/10/14 04:56:14;;;;;;;30.13;16.27;;;;;;;;;;4990023;28;20467;-63
2022/10/14 04:58:39;;;;;;;28.25;15.85;;;;;;;;;;4986577;28;20085;-64
2022/10/14 05:01:05;;;;;;;28.38;15.90;;;;;;;;;;4975939;28;20510;-63
2022/10/14 05:03:30;;;;;;;29.45;15.98;;;;;;;;;;4981947;28;20071;-64
2022/10/14 05:05:56;;;;;;;29.45;16.02;;;;;;;;;;4978406;28;20046;-64
2022/10/14 05:08:21;;;;;;;29.25;16.63;;;;;;;;;;4972763;28;20027;-63
2022/10/14 05:10:48;;;;;;;31.85;16.58;;;;;;;;;;4980588;28;20085;-63
2022/10/14 05:13:14;;;;;;;30.95;15.88;;;;;;;;;;4975700;28;20045;-63
2022/10/14 05:15:40;;;;;;;29.85;15.70;;;;;;;;;;4983210;28;20078;-63
2022/10/14 05:18:05;;;;;;;30.35;15.95;;;;;;;;;;4958440;28;20037;-62
2022/10/14 05:20:31;;;;;;;35.72;16.63;;;;;;;;;;4975470;28;20034;-63
2022/10/14 05:22:56;;;;;;;30.05;15.63;;;;;;;;;;4992286;28;20117;-62
2022/10/14 05:25:21;;;;;;;30.45;15.68;;;;;;;;;;4983076;28;20078;-62
2022/10/14 05:27:47;;;;;;;31.88;15.88;;;;;;;;;;4974183;28;20042;-62
2022/10/14 05:30:12;;;;;;;29.45;16.13;;;;;;;;;;4975966;28;20082;-62
2022/10/14 05:32:38;;;;;;;33.70;16.05;;;;;;;;;;4987349;28;20039;-62
2022/10/14 05:35:04;;;;;;;29.08;15.15;;;;;;;;;;4972320;28;20035;-62
2022/10/14 05:37:30;;;;;;;30.15;16.08;;;;;;;;;;4981566;28;20038;-61
2022/10/14 05:39:55;;;;;;;26.88;14.88;;;;;;;;;;4987918;28;20446;-61
2022/10/14 05:42:20;;;;;;;30.05;15.57;;;;;;;;;;4976105;28;20045;-62
2022/10/14 05:44:46;;;;;;;29.55;15.82;;;;;;;;;;4992283;28;20066;-62
2022/10/14 05:47:11;;;;;;;31.02;15.75;;;;;;;;;;4980387;28;20053;-63
2022/10/14 05:49:37;;;;;;;33.33;15.95;;;;;;;;;;4992699;28;20031;-63
2022/10/14 05:52:03;;;;;;;30.23;16.05;;;;;;;;;;4996450;28;20084;-62
2022/10/14 05:54:28;;;;;;;33.95;16.90;;;;;;;;;;4993479;28;20181;-62
2022/10/14 05:56:53;;;;;;;29.88;15.57;;;;;;;;;;4994725;28;20057;-62
2022/10/14 05:59:19;;;;;;;30.77;15.48;;;;;;;;;;4995429;28;20026;-62
2022/10/14 06:01:44;;;;;;;32.53;16.30;;;;;;;;;;4983249;28;20121;-62
2022/10/14 06:04:20;;;;;;;32.88;16.20;;;;;;;;;;4975511;28;20088;-62
2022/10/14 06:06:45;;;;;;;31.42;15.82;;;;;;;;;;4988706;28;20042;-63
2022/10/14 06:09:11;;;;;;;32.20;15.20;;;;;;;;;;4993085;28;20041;-62
2022/10/14 06:11:36;;;;;;;28.75;15.13;;;;;;;;;;4995586;28;20399;-63
2022/10/14 06:14:02;;;;;;;27.20;14.98;;;;;;;;;;4977631;28;20472;-63
2022/10/14 06:16:27;;;;;;;27.70;14.57;;;;;;;;;;4976060;28;20391;-63
2022/10/14 06:18:53;;;;;;;26.73;15.13;;;;;;;;;;4976347;28;20122;-62
2022/10/14 06:21:18;;;;;;;29.05;15.02;;;;;;;;;;4976435;28;20043;-62
2022/10/14 06:23:44;;;;;;;28.08;14.52;;;;;;;;;;4975451;28;20031;-62
2022/10/14 06:26:09;;;;;;;26.63;14.43;;;;;;;;;;4993791;28;20463;-62
2022/10/14 06:28:35;;;;;;;24.83;14.05;;;;;;;;;;4991822;28;20105;-62
2022/10/14 06:31:01;;;;;;;25.48;14.15;;;;;;;;;;4994516;28;20088;-62
2022/10/14 06:33:27;;;;;;;25.30;13.57;;;;;;;;;;4987422;28;20439;-62
2022/10/14 06:35:53;;;;;;;25.30;13.82;;;;;;;;;;4976623;28;20038;-62
2022/10/14 06:38:18;;;;;;;24.55;14.32;;;;;;;;;;4976233;28;20110;-63
2022/10/14 06:40:44;;;;;;;23.38;13.70;;;;;;;;;;4976895;28;20741;-64
2022/10/14 06:43:09;;;;;;;22.48;13.18;;;;;;;;;;4976577;28;20039;-63
2022/10/14 06:45:34;;;;;;;24.25;13.48;;;;;;;;;;4974860;28;20039;-63
2022/10/14 06:48:00;;;;;;;23.13;13.90;;;;;;;;;;4989520;28;20038;-62
2022/10/14 06:50:26;;;;;;;23.73;13.32;;;;;;;;;;4993761;28;20049;-63
2022/10/14 06:52:51;;;;;;;21.25;12.98;;;;;;;;;;4991073;28;20030;-62
2022/10/14 06:55:16;;;;;;;20.05;12.35;;;;;;;;;;4981286;28;20471;-63
2022/10/14 06:57:42;;;;;;;22.25;12.45;;;;;;;;;;4992374;28;20037;-62
2022/10/14 07:00:08;;;;;;;21.13;11.88;;;;;;;;;;4975466;28;20372;-63
2022/10/14 07:02:36;;;;;;;20.63;11.95;;;;;;;;;;4983017;28;20120;-62
2022/10/14 07:05:02;;;;;;;21.45;11.88;;;;;;;;;;4991708;28;20031;-63
2022/10/14 07:07:27;;;;;;;20.98;11.70;;;;;;;;;;4975830;28;20026;-63
2022/10/14 07:09:53;;;;;;;25.55;12.07;;;;;;;;;;4979997;28;20534;-63
2022/10/14 07:12:18;;;;;;;18.95;11.70;;;;;;;;;;4983035;28;20065;-63
2022/10/14 07:14:43;;;;;;;17.95;11.05;;;;;;;;;;4977091;28;20039;-62
2022/10/14 07:17:09;;;;;;;21.23;11.88;;;;;;;;;;4991884;28;20382;-63
2022/10/14 07:19:34;;;;;;;17.25;10.88;;;;;;;;;;4986216;28;20034;-63
2022/10/14 07:21:59;;;;;;;17.70;10.77;;;;;;;;;;4975089;28;20105;-63
2022/10/14 07:24:25;;;;;;;16.60;10.45;;;;;;;;;;4990192;28;20034;-63
2022/10/14 07:26:51;;;;;;;16.67;10.35;;;;;;;;;;4992359;28;20038;-63
2022/10/14 07:29:16;;;;;;;15.73;10.45;;;;;;;;;;4988517;28;20387;-64
2022/10/14 07:31:42;;;;;;;15.38;10.05;;;;;;;;;;4990495;28;20038;-64
2022/10/14 07:34:08;;;;;;;14.30;9.25;;;;;;;;;;4993622;28;20038;-63
2022/10/14 07:36:33;;;;;;;15.40;9.88;;;;;;;;;;4993896;28;20041;-63
2022/10/14 07:38:59;;;;;;;13.85;9.15;;;;;;;;;;4981872;28;20478;-63
2022/10/14 07:41:25;;;;;;;14.80;10.40;;;;;;;;;;4974572;28;20039;-63
2022/10/14 07:43:54;;;;;;;13.43;9.52;;;;;;;;;;4988553;28;20061;-63
2022/10/14 07:46:28;;;;;;;13.43;8.90;;;;;;;;;;4988526;28;20387;-63
2022/10/14 07:48:58;;;;;;;12.73;8.63;;;;;;;;;;4988645;28;20456;-63
2022/10/14 07:51:26;;;;;;;11.32;8.65;;;;;;;;;;4990563;28;20117;-63
2022/10/14 07:53:52;;;;;;;13.27;8.65;;;;;;;;;;4982076;28;20035;-63
2022/10/14 07:56:18;;;;;;;12.10;7.93;;;;;;;;;;4974323;28;20089;-64
2022/10/14 07:58:45;;;;;;;13.18;8.23;;;;;;;;;;4974238;28;20030;-63
2022/10/14 08:01:10;;;;;;;10.18;7.70;;;;;;;;;;4977016;28;20106;-63
2022/10/14 08:03:36;;;;;;;11.30;7.93;;;;;;;;;;4983445;28;20121;-63
2022/10/14 08:06:03;;;;;;;15.23;7.85;;;;;;;;;;4975233;28;20476;-63
2022/10/14 08:08:29;;;;;;;10.15;7.25;;;;;;;;;;4976057;28;20097;-63
2022/10/14 08:11:01;;;;;;;10.93;7.88;;;;;;;;;;4992357;28;20050;-63
2022/10/14 08:13:28;;;;;;;11.65;7.72;;;;;;;;;;4982565;28;20122;-64
2022/10/14 08:15:53;;;;;;;10.63;7.50;;;;;;;;;;4973650;28;20105;-63
2022/10/14 08:18:19;;;;;;;12.07;7.25;;;;;;;;;;4984692;28;20030;-62
2022/10/14 08:20:44;;;;;;;10.15;7.88;;;;;;;;;;4980096;28;20043;-65
2022/10/14 08:23:11;;;;;;;9.95;7.28;;;;;;;;;;4988323;28;20034;-65
2022/10/14 08:25:36;;;;;;;10.00;7.22;;;;;;;;;;4974369;28;20077;-63
2022/10/14 08:28:02;;;;;;;9.30;6.78;;;;;;;;;;4976460;28;20030;-64
2022/10/14 08:30:27;;;;;;;9.95;7.05;;;;;;;;;;4984077;28;20027;-64
2022/10/14 08:32:54;;;;;;;8.73;7.07;;;;;;;;;;4976897;28;20034;-63
2022/10/14 08:35:19;;;;;;;9.20;6.57;;;;;;;;;;4985380;28;20178;-63
2022/10/14 08:37:54;;;;;;;7.80;6.32;;;;;;;;;;4979816;28;20117;-64
2022/10/14 08:40:19;;;;;;;8.68;6.63;;;;;;;;;;4991639;28;20414;-64
2022/10/14 08:43:12;;;;;;;9.55;6.60;;;;;;;;;;4988948;28;20169;-64
2022/10/14 08:45:44;;;;;;;8.52;6.45;;;;;;;;;;4973195;28;20053;-64
2022/10/14 08:48:17;;;;;;;8.85;6.10;;;;;;;;;;4977075;28;20062;-64
2022/10/14 08:50:53;;;;;;;8.60;6.30;;;;;;;;;;4991111;28;20037;-64
2022/10/14 08:53:19;;;;;;;12.07;5.30;;;;;;;;;;4992052;28;20030;-64
2022/10/14 08:55:47;;;;;;;6.60;4.95;;;;;;;;;;4976336;28;20042;-64
2022/10/14 08:58:39;;;;;;;9.18;5.55;;;;;;;;;;4984686;28;20383;-65
2022/10/14 09:01:20;;;;;;;11.38;5.65;;;;;;;;;;4993138;28;20117;-65
2022/10/14 09:03:45;;;;;;;;;;;;;;;;;;4990363;28;20042;-64
2022/10/14 09:06:34;;;;;;;7.32;4.95;;;;;;;;;;4992438;28;20378;-65
2022/10/14 09:09:15;;;;;;;9.25;5.15;;;;;;;;;;4973663;28;20078;-64
2022/10/14 09:11:43;;;;;;;8.82;4.93;;;;;;;;;;4973084;28;20039;-64
2022/10/14 09:14:16;;;;;;;5.47;4.25;;;;;;;;;;4973808;28;20464;-65
2022/10/14 09:16:45;;;;;;;5.90;3.90;;;;;;;;;;4990357;28;20367;-65
2022/10/14 09:19:33;;;;;;;6.43;4.15;;;;;;;;;;4992483;28;20039;-64
2022/10/14 09:22:00;;;;;;;6.57;3.90;;;;;;;;;;4976058;28;20712;-65
2022/10/14 09:24:37;;;;;;;6.38;4.25;;;;;;;;;;4992525;28;20047;-65
2022/10/14 09:27:20;;;;;;;7.97;4.10;;;;;;;;;;4996196;28;20053;-65
2022/10/14 09:30:03;;;;;;;8.65;4.40;;;;;;;;;;4993554;28;20042;-66
2022/10/14 09:32:39;;;;;;;4.68;3.47;;;;;;;;;;4992152;28;20039;-64
2022/10/14 09:35:17;;;;;;;3.70;2.72;;;;;;;;;;4977014;28;20035;-65
2022/10/14 09:37:42;;;;;;;4.05;3.00;;;;;;;;;;4976284;28;20027;-64
2022/10/14 09:40:08;;;;;;;4.55;2.80;;;;;;;;;;4981982;28;20041;-65
2022/10/14 09:43:04;;;;;;;3.75;2.70;;;;;;;;;;4991936;28;20057;-65
2022/10/14 09:45:47;;;;;;;4.57;2.60;;;;;;;;;;4995071;28;20046;-64
2022/10/14 09:48:37;;;;;;;4.32;2.45;;;;;;;;;;4984370;28;20037;-65
2022/10/14 09:51:09;;;;;;;4.93;2.70;;;;;;;;;;4984181;28;20038;-65
2022/10/14 09:54:05;;;;;;;4.50;2.40;;;;;;;;;;4991215;28;20065;-65
2022/10/14 09:56:33;;;;;;;5.65;2.28;;;;;;;;;;4976727;28;20415;-64
2022/10/14 09:59:00;;;;;;;2.33;1.98;;;;;;;;;;4989369;28;20042;-65
2022/10/14 10:01:35;;;;;;;3.33;2.13;;;;;;;;;;4974965;28;20487;-63
2022/10/14 10:04:35;;;;;;;5.15;2.53;;;;;;;;;;4988574;28;20620;-65
2022/10/14 10:07:06;;;;;;;2.97;2.00;;;;;;;;;;4993769;28;20273;-66
2022/10/14 10:09:32;;;;;;;3.33;2.20;;;;;;;;;;4990355;28;20380;-65
2022/10/14 10:11:58;;;;;;;5.63;2.20;;;;;;;;;;4975760;28;20504;-65
2022/10/14 10:14:25;;;;;;;2.35;2.15;;;;;;;;;;4976239;28;20130;-65
2022/10/14 10:17:17;;;;;;;2.60;2.00;;;;;;;;;;4975324;28;20081;-64
2022/10/14 10:19:45;;;;;;;4.10;2.10;;;;;;;;;;4975428;28;20030;-63
2022/10/14 10:22:25;;;;;;;2.25;2.00;;;;;;;;;;4975515;28;20054;-65
2022/10/14 10:25:13;;;;;;;4.25;2.15;;;;;;;;;;4975119;28;20081;-64
2022/10/14 10:27:46;;;;;;;2.95;1.90;;;;;;;;;;4995154;28;20039;-66
2022/10/14 10:30:26;;;;;;;2.00;1.60;;;;;;;;;;4988563;28;20038;-66
2022/10/14 10:33:13;;;;;;;2.92;2.08;;;;;;;;;;4993427;28;20041;-65
2022/10/14 10:35:57;;;;;;;2.75;2.00;;;;;;;;;;4982253;28;20034;-66
2022/10/14 10:38:30;;;;;;;3.55;1.92;;;;;;;;;;4994648;28;20037;-66
2022/10/14 10:41:25;;;;;;;2.75;1.90;;;;;;;;;;4977260;28;20038;-66
2022/10/14 10:43:53;;;;;;;2.50;1.80;;;;;;;;;;4990974;28;20085;-66
2022/10/14 10:46:40;;;;;;;3.10;2.00;;;;;;;;;;4986345;28;20097;-66
2022/10/14 10:49:26;;;;;;;2.85;1.95;;;;;;;;;;4982644;28;20047;-66
2022/10/14 10:52:22;;;;;;;4.32;1.83;;;;;;;;;;4974442;28;20077;-64
2022/10/14 10:55:06;;;;;;;4.53;1.70;;;;;;;;;;4974951;28;20038;-66
2022/10/14 10:58:06;;;;;;;2.47;1.83;;;;;;;;;;4981135;28;20027;-66
2022/10/14 11:00:44;;;;;;;2.35;1.80;;;;;;;;;;4980304;28;20050;-64
2022/10/14 11:03:31;;;;;;;2.10;1.60;;;;;;;;;;4976772;28;20035;-66
2022/10/14 11:06:08;;;;;;;1.70;1.60;;;;;;;;;;4976919;28;20122;-66
2022/10/14 11:14:45;;;;;;;2.53;1.80;;;;;;;;;;4975907;28;20395;-66
2022/10/14 11:17:40;;;;;;;2.28;1.80;;;;;;;;;;4992189;28;20030;-65
2022/10/14 11:20:22;;;;;;;3.95;1.80;;;;;;;;;;4999879;28;20406;-67
2022/10/14 11:23:33;;;;;;;3.15;1.80;;;;;;;;;;4993591;28;20042;-65
2022/10/14 11:26:09;;;;;;;2.28;1.88;;;;;;;;;;4971788;28;20035;-67
2022/10/14 11:28:47;;;;;;;2.60;1.83;;;;;;;;;;4974857;28;20499;-67
2022/10/14 11:31:38;;;;;;;3.40;2.10;;;;;;;;;;4975517;28;20116;-67
2022/10/14 11:34:03;;;;;;;2.60;2.03;;;;;;;;;;4974600;28;20031;-68
2022/10/14 11:37:02;;;;;;;5.03;2.15;;;;;;;;;;4986345;28;20092;-67
2022/10/14 11:39:51;;;;;;;3.25;2.00;;;;;;;;;;4992545;28;20452;-67
2022/10/14 11:42:55;;;;;;;2.60;2.00;;;;;;;;;;4994535;28;20030;-67
2022/10/14 11:45:32;;;;;;;2.90;1.92;;;;;;;;;;4991944;28;20034;-68
2022/10/14 11:48:09;;;;;;;3.08;2.13;;;;;;;;;;4990352;28;20038;-67
2022/10/14 11:50:40;;;;;;;3.33;2.25;;;;;;;;;;4990389;28;20434;-67
2022/10/14 11:53:44;;;;;;;3.30;2.00;;;;;;;;;;4990481;28;20034;-67
2022/10/14 11:56:38;;;;;;;5.88;2.10;;;;;;;;;;4989277;28;20042;-67
2022/10/14 11:59:59;;;;;;;4.35;2.30;;;;;;;;;;4990976;28;20050;-67
2022/10/14 12:02:29;;;;;;;3.15;2.33;;;;;;;;;;4968827;28;20053;-68
2022/10/14 12:05:19;;;;;;;3.85;2.35;;;;;;;;;;4978463;28;20511;-67
2022/10/14 12:07:58;;;;;;;5.70;2.30;;;;;;;;;;4951290;28;20526;-67
2022/10/14 12:10:33;;;;;;;4.78;2.60;;;;;;;;;;4975871;28;20085;-67
2022/10/14 12:13:00;;;;;;;5.55;2.75;;;;;;;;;;4971434;28;20120;-67
2022/10/14 12:15:25;;;;;;;3.80;2.55;;;;;;;;;;4975641;28;20050;-68
2022/10/14 12:17:54;;;;;;;4.60;2.70;;;;;;;;;;4991073;28;20284;-66
2022/10/14 12:20:50;;;;;;;5.47;3.17;;;;;;;;;;4973597;28;20038;-66
2022/10/14 12:23:44;;;;;;;5.47;3.22;;;;;;;;;;4985750;28;20097;-67
2022/10/14 12:26:18;;;;;;;5.88;3.20;;;;;;;;;;4980061;28;20125;-67
2022/10/14 12:28:44;;;;;;;7.47;3.30;;;;;;;;;;4974106;28;20039;-67
2022/10/14 12:31:34;;;;;;;5.25;3.45;;;;;;;;;;4977092;28;20479;-67
2022/10/14 12:34:17;;;;;;;6.25;3.67;;;;;;;;;;4975216;28;20034;-66
2022/10/14 12:36:49;;;;;;;6.25;3.80;;;;;;;;;;4988337;28;20034;-67
2022/10/14 12:39:17;;;;;;;5.78;3.55;;;;;;;;;;4993161;28;20515;-67
2022/10/14 12:42:02;;;;;;;6.70;4.28;;;;;;;;;;4990491;28;20034;-66
2022/10/14 12:44:50;;;;;;;5.88;4.07;;;;;;;;;;4993130;28;20034;-68
2022/10/14 12:47:20;;;;;;;8.05;4.28;;;;;;;;;;4980330;28;20076;-67
2022/10/14 12:49:49;;;;;;;6.38;3.95;;;;;;;;;;4973428;28;20038;-66
2022/10/14 12:52:22;;;;;;;7.47;4.00;;;;;;;;;;4987193;28;20030;-67
2022/10/14 12:54:48;;;;;;;9.23;4.38;;;;;;;;;;4988092;28;20049;-67
2022/10/14 12:57:21;;;;;;;7.13;4.80;;;;;;;;;;4973068;28;20026;-68
2022/10/14 12:59:50;;;;;;;7.68;4.70;;;;;;;;;;4973361;28;20089;-66
2022/10/14 13:02:31;;;;;;;6.97;4.80;;;;;;;;;;4976434;28;20046;-69
2022/10/14 13:04:59;;;;;;;8.50;5.07;;;;;;;;;;4972638;28;20066;-67
2022/10/14 13:07:24;;;;;;;8.55;5.63;;;;;;;;;;4973571;28;20035;-67
2022/10/14 13:09:59;;;;;;;10.20;5.53;;;;;;;;;;4987339;28;20053;-66
2022/10/14 13:12:24;;;;;;;9.77;5.45;;;;;;;;;;4974311;28;20038;-66
2022/10/14 13:14:57;;;;;;;9.18;5.88;;;;;;;;;;4973726;28;20057;-67
2022/10/14 13:17:40;;;;;;;11.95;6.20;;;;;;;;;;4992551;28;20114;-70
2022/10/14 13:20:32;;;;;;;9.65;6.18;;;;;;;;;;4988087;28;20039;-69
2022/10/14 13:23:28;;;;;;;12.85;6.53;;;;;;;;;;4973961;28;20054;-67
2022/10/14 13:26:15;;;;;;;15.68;6.40;;;;;;;;;;4990554;28;20031;-68
2022/10/14 13:28:55;;;;;;;12.82;7.18;;;;;;;;;;4991563;28;20117;-69
2022/10/14 13:31:34;;;;;;;11.02;7.38;;;;;;;;;;4979744;28;20035;-70
2022/10/14 13:34:33;;;;;;;13.75;7.32;;;;;;;;;;4972540;28;20038;-68
2022/10/14 13:37:36;;;;;;;13.43;7.20;;;;;;;;;;4973935;28;20483;-67
2022/10/14 13:40:20;;;;;;;12.25;7.38;;;;;;;;;;4988277;28;20386;-68
2022/10/14 13:42:51;;;;;;;15.30;7.32;;;;;;;;;;4992729;28;20065;-68
2022/10/14 13:45:20;;;;;;;16.40;8.00;;;;;;;;;;4989680;28;20046;-69
2022/10/14 13:47:47;;;;;;;13.05;7.78;;;;;;;;;;4984579;28;20037;-69
2022/10/14 13:50:17;;;;;;;14.40;7.70;;;;;;;;;;4974560;28;20038;-68
2022/10/14 13:53:07;;;;;;;13.73;7.70;;;;;;;;;;4990756;28;20022;-68
2022/10/14 13:55:43;;;;;;;13.55;7.70;;;;;;;;;;4981359;28;20463;-68
2022/10/14 13:58:14;;;;;;;12.98;7.82;;;;;;;;;;4991613;28;20513;-68
2022/10/14 14:00:58;;;;;;;14.85;8.00;;;;;;;;;;4984822;28;20035;-68
2022/10/14 14:03:37;;;;;;;17.65;7.78;;;;;;;;;;4978932;28;20381;-68
2022/10/14 14:06:10;;;;;;;13.65;7.93;;;;;;;;;;4991188;28;20027;-68
2022/10/14 14:08:48;;;;;;;12.68;7.28;;;;;;;;;;4979760;28;20185;-69
2022/10/14 14:11:22;;;;;;;13.68;8.10;;;;;;;;;;4985366;28;20031;-69
2022/10/14 14:14:01;;;;;;;10.77;7.38;;;;;;;;;;4987229;28;20034;-69
2022/10/14 14:16:38;;;;;;;10.90;6.75;;;;;;;;;;4982363;28;20050;-68
2022/10/14 14:19:04;;;;;;;14.27;7.50;;;;;;;;;;4990164;28;20398;-68
2022/10/14 14:21:31;;;;;;;14.70;7.07;;;;;;;;;;4993520;28;20047;-67
2022/10/14 14:23:59;;;;;;;11.18;7.00;;;;;;;;;;4991321;28;20205;-65
2022/10/14 14:26:37;;;;;;;12.38;7.32;;;;;;;;;;4975842;28;20042;-68
2022/10/14 14:29:24;;;;;;;12.40;6.60;;;;;;;;;;4975585;28;20468;-67
2022/10/14 14:31:50;;;;;;;9.90;6.35;;;;;;;;;;4990322;28;20073;-66
2022/10/14 14:34:21;;;;;;;11.13;6.13;;;;;;;;;;4975454;28;20369;-66
2022/10/14 14:36:46;;;;;;;;;;;;;;;;;;4991822;28;20061;-66
2022/10/14 14:39:25;;;;;;;10.50;5.80;;;;;;;;;;4980515;28;19918;-67
2022/10/14 14:41:56;;;;;;;10.23;6.22;;;;;;;;;;4990322;28;20034;-68
2022/10/14 14:44:25;;;;;;;9.75;5.88;;;;;;;;;;4977998;28;20509;-67
2022/10/14 14:46:52;;;;;;;10.25;5.80;;;;;;;;;;4992308;28;20113;-67
2022/10/14 14:49:38;;;;;;;9.10;5.78;;;;;;;;;;4993550;28;20110;-67
2022/10/14 14:52:05;;;;;;;10.75;6.22;;;;;;;;;;4975111;28;20126;-67
2022/10/14 14:54:30;;;;;;;9.55;6.25;;;;;;;;;;4985108;28;20034;-67
2022/10/14 14:56:58;;;;;;;9.48;6.13;;;;;;;;;;4980708;28;20109;-68
2022/10/14 14:59:34;;;;;;;11.23;6.80;;;;;;;;;;4975719;28;20486;-68
2022/10/14 15:02:01;;;;;;;11.45;6.53;;;;;;;;;;4974472;28;20034;-68
2022/10/14 15:04:32;;;;;;;9.75;6.25;;;;;;;;;;4975334;28;20458;-68